MSC Annamaria — H3HN — position and weather

sailwx.info

Track history (hours):
 
Tides and Currents Weather Stations Pressure Air Temp Water Temp Dewpoint Dewpoint Depression Visibility Wind Speed Wind Dir Waves Ship Positions

MSC Annamaria

Last reported at 2017-Mar-22 21:29 UTC. Time now 2017-Mar-22 22:11 UTC.
Position N 45°38' E 013°46'.

Length 188 m; draft 9 m.

Type: Ship (hazmat cat A). MMSI: 353852000.

Date/timePositionNaut miles runAvg speedWind from/ knotsBaromVisibWave heightAir tempDewpointWater temp
2017-Mar-22 21:29N 45°38' E 013°46'0 0.0
2017-Mar-22 20:33N 45°38' E 013°46'0 0.0
2017-Mar-22 19:28N 45°38' E 013°46'0 0.0
2017-Mar-22 18:31N 45°38' E 013°46'0 0.0
2017-Mar-22 17:33N 45°38' E 013°46'3 3.2
2017-Mar-22 16:33N 45°40' E 013°42'0 0.1
2017-Mar-22 15:32N 45°40' E 013°42'0 0.0
2017-Mar-22 14:31N 45°40' E 013°42'0 0.0
2017-Mar-22 13:28N 45°40' E 013°42'0 0.0
2017-Mar-22 12:29N 45°40' E 013°42'0 0.0
2017-Mar-22 11:31N 45°40' E 013°42'0 0.2
2017-Mar-22 10:31N 45°40' E 013°42'4 3.8
2017-Mar-22 09:33N 45°38' E 013°37'1211.9
2017-Mar-22 08:33N 45°31' E 013°24'1212.0
2017-Mar-22 07:33N 45°22' E 013°13'1212.4
2017-Mar-22 06:33N 45°10' E 013°16'1212.5
2017-Mar-22 05:33N 44°58' E 013°22'1312.6
2017-Mar-22 04:33N 44°47' E 013°32'1312.7
2017-Mar-22 03:33N 44°37' E 013°41'1312.5
2017-Mar-22 02:33N 44°26' E 013°50'1312.6
2017-Mar-22 01:33N 44°15' E 013°60'4210.6
2017-Mar-21 21:33N 43°39' E 013°31'1 0.1
2017-Mar-21 08:32N 43°38' E 013°29'1 0.2
2017-Mar-20 23:26N 43°39' E 013°29'8 9.0
2017-Mar-20 22:33N 43°44' E 013°38'3110.4
2017-Mar-20 19:33N 44°10' E 013°15'2812.7
2017-Mar-20 17:22N 44°36' E 013°01'1113.2
2017-Mar-20 16:33N 44°46' E 012°55'1413.7
2017-Mar-20 15:33N 44°58' E 012°47'1312.9
2017-Mar-20 14:33N 45°09' E 012°37'1313.1
2017-Mar-20 13:33N 45°18' E 012°24'8 7.7
2017-Mar-20 12:33N 45°23' E 012°16'4 3.7
2017-Mar-20 11:31N 45°27' E 012°15'0 0.0
2017-Mar-20 10:33N 45°27' E 012°15'0 0.0
2017-Mar-20 09:31N 45°27' E 012°15'0 0.0
2017-Mar-20 08:31N 45°27' E 012°15'0 0.0
2017-Mar-20 07:32N 45°27' E 012°15'0 0.0
2017-Mar-20 06:28N 45°27' E 012°15'0 0.0
2017-Mar-20 05:26N 45°27' E 012°15'0 0.0
2017-Mar-20 04:30N 45°27' E 012°15'0 0.0
2017-Mar-20 03:33N 45°27' E 012°15'0 0.0
2017-Mar-20 02:33N 45°27' E 012°15'0 0.0
2017-Mar-20 01:32N 45°27' E 012°15'0 0.0
2017-Mar-20 00:33N 45°27' E 012°15'0 0.0
2017-Mar-19 23:33N 45°27' E 012°15'0 0.0
2017-Mar-19 22:33N 45°27' E 012°15'0 0.0
2017-Mar-19 21:32N 45°27' E 012°15'0 0.0
2017-Mar-19 20:32N 45°27' E 012°15'0 0.0
2017-Mar-19 19:32N 45°27' E 012°15'0 0.0
2017-Mar-19 18:32N 45°27' E 012°15'0 0.0
2017-Mar-19 17:31N 45°27' E 012°15'0 0.0
2017-Mar-19 16:27N 45°27' E 012°15'0 0.0
2017-Mar-19 15:33N 45°27' E 012°15'0 0.0
2017-Mar-19 14:33N 45°27' E 012°15'0 0.0
2017-Mar-19 13:33N 45°27' E 012°15'0 0.0
2017-Mar-19 12:32N 45°27' E 012°15'0 0.0
2017-Mar-19 11:32N 45°27' E 012°15'0 0.0
2017-Mar-19 10:31N 45°27' E 012°15'0 0.0
2017-Mar-19 09:32N 45°27' E 012°15'0 0.0
2017-Mar-19 08:32N 45°27' E 012°15'0 0.0
2017-Mar-19 07:32N 45°27' E 012°15'0 0.0
2017-Mar-19 06:32N 45°27' E 012°15'0 0.0
2017-Mar-19 05:32N 45°27' E 012°15'0 0.0
2017-Mar-19 04:32N 45°27' E 012°15'0 0.0
2017-Mar-19 03:33N 45°27' E 012°15'0 0.0
2017-Mar-19 02:33N 45°27' E 012°15'0 0.0
2017-Mar-19 01:32N 45°27' E 012°15'0 0.0
2017-Mar-19 00:28N 45°27' E 012°15'0 0.0
2017-Mar-18 23:31N 45°27' E 012°15'0 0.0
2017-Mar-18 22:33N 45°27' E 012°15'0 0.0
2017-Mar-18 21:31N 45°27' E 012°15'0 0.0
2017-Mar-18 20:31N 45°27' E 012°15'0 0.0
2017-Mar-18 19:31N 45°27' E 012°15'0 0.0
2017-Mar-18 18:33N 45°27' E 012°15'0 0.0
2017-Mar-18 17:31N 45°27' E 012°15'0 0.0
2017-Mar-18 16:32N 45°27' E 012°15'3 2.9
2017-Mar-18 15:33N 45°24' E 012°16'8 7.9
2017-Mar-18 14:33N 45°19' E 012°24'1111.3
2017-Mar-18 13:34N 45°13' E 012°38'1313.3
2017-Mar-18 12:34N 45°03' E 012°50'1312.9
2017-Mar-18 11:33N 44°50' E 012°51'1413.9
2017-Mar-18 10:34N 44°37' E 012°44'1211.8
2017-Mar-18 09:33N 44°30' E 012°32'1110.9
2017-Mar-18 08:34N 44°29' E 012°16'3 0.6
2017-Mar-18 04:21N 44°27' E 012°15'0 0.0
2017-Mar-18 00:26N 44°27' E 012°15'0 0.0
2017-Mar-17 23:05N 44°27' E 012°15'0 0.0
2017-Mar-17 22:29N 44°27' E 012°15'0 0.0
2017-Mar-17 20:28N 44°27' E 012°15'0 0.0
2017-Mar-17 19:32N 44°27' E 012°15'0 0.0
2017-Mar-17 18:32N 44°27' E 012°15'0 0.0
2017-Mar-17 17:32N 44°27' E 012°15'0 0.0
2017-Mar-17 16:32N 44°27' E 012°15'0 0.0
2017-Mar-17 15:32N 44°27' E 012°15'0 0.0
2017-Mar-17 14:32N 44°27' E 012°15'1 1.5
2017-Mar-17 13:33N 44°28' E 012°15'7 7.3
2017-Mar-17 12:33N 44°30' E 012°25'1313.1
2017-Mar-17 11:33N 44°30' E 012°44'1312.7
2017-Mar-17 10:33N 44°23' E 012°58'3 3.2
2017-Mar-17 09:33N 44°20' E 013°01'5 5.1
2017-Mar-17 08:33N 44°19' E 013°08'1414.2
2017-Mar-17 07:33N 44°12' E 013°25'3014.5
2017-Mar-17 05:29N 43°54' E 013°59'1314.4
2017-Mar-17 04:33N 43°48' E 014°15'  
2017-Mar-13 20:18N 34°19' E 032°47'1013.2
2017-Mar-13 19:33N 34°17' E 032°58'  
Track history (hours):
 
Tides and Currents Weather Stations Pressure Air Temp Water Temp Dewpoint Dewpoint Depression Visibility Wind Speed Wind Dir Waves Ship Positions

MSC Annamaria

Last reported at 2017-Mar-22 21:29 UTC. Time now 2017-Mar-22 22:11 UTC.
Position N 45°38' E 013°46'.

Length 188 m; draft 9 m.

Type: Ship (hazmat cat A). MMSI: 353852000.

Date/timePositionNaut miles runAvg speedWind from/ knotsBaromVisibWave heightAir tempDewpointWater temp
2017-Mar-22 21:29N 45°38' E 013°46'0 0.0
2017-Mar-22 20:33N 45°38' E 013°46'0 0.0
2017-Mar-22 19:28N 45°38' E 013°46'0 0.0
2017-Mar-22 18:31N 45°38' E 013°46'0 0.0
2017-Mar-22 17:33N 45°38' E 013°46'3 3.2
2017-Mar-22 16:33N 45°40' E 013°42'0 0.1
2017-Mar-22 15:32N 45°40' E 013°42'0 0.0
2017-Mar-22 14:31N 45°40' E 013°42'0 0.0
2017-Mar-22 13:28N 45°40' E 013°42'0 0.0
2017-Mar-22 12:29N 45°40' E 013°42'0 0.0
2017-Mar-22 11:31N 45°40' E 013°42'0 0.2
2017-Mar-22 10:31N 45°40' E 013°42'4 3.8
2017-Mar-22 09:33N 45°38' E 013°37'1211.9
2017-Mar-22 08:33N 45°31' E 013°24'1212.0
2017-Mar-22 07:33N 45°22' E 013°13'1212.4
2017-Mar-22 06:33N 45°10' E 013°16'1212.5
2017-Mar-22 05:33N 44°58' E 013°22'1312.6
2017-Mar-22 04:33N 44°47' E 013°32'1312.7
2017-Mar-22 03:33N 44°37' E 013°41'1312.5
2017-Mar-22 02:33N 44°26' E 013°50'1312.6
2017-Mar-22 01:33N 44°15' E 013°60'4210.6
2017-Mar-21 21:33N 43°39' E 013°31'1 0.1
2017-Mar-21 08:32N 43°38' E 013°29'1 0.2
2017-Mar-20 23:26N 43°39' E 013°29'8 9.0
2017-Mar-20 22:33N 43°44' E 013°38'3110.4
2017-Mar-20 19:33N 44°10' E 013°15'2812.7
2017-Mar-20 17:22N 44°36' E 013°01'1113.2
2017-Mar-20 16:33N 44°46' E 012°55'1413.7
2017-Mar-20 15:33N 44°58' E 012°47'1312.9
2017-Mar-20 14:33N 45°09' E 012°37'1313.1
2017-Mar-20 13:33N 45°18' E 012°24'8 7.7
2017-Mar-20 12:33N 45°23' E 012°16'4 3.7
2017-Mar-20 11:31N 45°27' E 012°15'0 0.0
2017-Mar-20 10:33N 45°27' E 012°15'0 0.0
2017-Mar-20 09:31N 45°27' E 012°15'0 0.0
2017-Mar-20 08:31N 45°27' E 012°15'0 0.0
2017-Mar-20 07:32N 45°27' E 012°15'0 0.0
2017-Mar-20 06:28N 45°27' E 012°15'0 0.0
2017-Mar-20 05:26N 45°27' E 012°15'0 0.0
2017-Mar-20 04:30N 45°27' E 012°15'0 0.0
2017-Mar-20 03:33N 45°27' E 012°15'0 0.0
2017-Mar-20 02:33N 45°27' E 012°15'0 0.0
2017-Mar-20 01:32N 45°27' E 012°15'0 0.0
2017-Mar-20 00:33N 45°27' E 012°15'0 0.0
2017-Mar-19 23:33N 45°27' E 012°15'0 0.0
2017-Mar-19 22:33N 45°27' E 012°15'0 0.0
2017-Mar-19 21:32N 45°27' E 012°15'0 0.0
2017-Mar-19 20:32N 45°27' E 012°15'0 0.0
2017-Mar-19 19:32N 45°27' E 012°15'0 0.0
2017-Mar-19 18:32N 45°27' E 012°15'0 0.0
2017-Mar-19 17:31N 45°27' E 012°15'0 0.0
2017-Mar-19 16:27N 45°27' E 012°15'0 0.0
2017-Mar-19 15:33N 45°27' E 012°15'0 0.0
2017-Mar-19 14:33N 45°27' E 012°15'0 0.0
2017-Mar-19 13:33N 45°27' E 012°15'0 0.0
2017-Mar-19 12:32N 45°27' E 012°15'0 0.0
2017-Mar-19 11:32N 45°27' E 012°15'0 0.0
2017-Mar-19 10:31N 45°27' E 012°15'0 0.0
2017-Mar-19 09:32N 45°27' E 012°15'0 0.0
2017-Mar-19 08:32N 45°27' E 012°15'0 0.0
2017-Mar-19 07:32N 45°27' E 012°15'0 0.0
2017-Mar-19 06:32N 45°27' E 012°15'0 0.0
2017-Mar-19 05:32N 45°27' E 012°15'0 0.0
2017-Mar-19 04:32N 45°27' E 012°15'0 0.0
2017-Mar-19 03:33N 45°27' E 012°15'0 0.0
2017-Mar-19 02:33N 45°27' E 012°15'0 0.0
2017-Mar-19 01:32N 45°27' E 012°15'0 0.0
2017-Mar-19 00:28N 45°27' E 012°15'0 0.0
2017-Mar-18 23:31N 45°27' E 012°15'0 0.0
2017-Mar-18 22:33N 45°27' E 012°15'0 0.0
2017-Mar-18 21:31N 45°27' E 012°15'0 0.0
2017-Mar-18 20:31N 45°27' E 012°15'0 0.0
2017-Mar-18 19:31N 45°27' E 012°15'0 0.0
2017-Mar-18 18:33N 45°27' E 012°15'0 0.0
2017-Mar-18 17:31N 45°27' E 012°15'0 0.0
2017-Mar-18 16:32N 45°27' E 012°15'3 2.9
2017-Mar-18 15:33N 45°24' E 012°16'8 7.9
2017-Mar-18 14:33N 45°19' E 012°24'1111.3
2017-Mar-18 13:34N 45°13' E 012°38'1313.3
2017-Mar-18 12:34N 45°03' E 012°50'1312.9
2017-Mar-18 11:33N 44°50' E 012°51'1413.9
2017-Mar-18 10:34N 44°37' E 012°44'1211.8
2017-Mar-18 09:33N 44°30' E 012°32'1110.9
2017-Mar-18 08:34N 44°29' E 012°16'3 0.6
2017-Mar-18 04:21N 44°27' E 012°15'0 0.0
2017-Mar-18 00:26N 44°27' E 012°15'0 0.0
2017-Mar-17 23:05N 44°27' E 012°15'0 0.0
2017-Mar-17 22:29N 44°27' E 012°15'0 0.0
2017-Mar-17 20:28N 44°27' E 012°15'0 0.0
2017-Mar-17 19:32N 44°27' E 012°15'0 0.0
2017-Mar-17 18:32N 44°27' E 012°15'0 0.0
2017-Mar-17 17:32N 44°27' E 012°15'0 0.0
2017-Mar-17 16:32N 44°27' E 012°15'0 0.0
2017-Mar-17 15:32N 44°27' E 012°15'0 0.0
2017-Mar-17 14:32N 44°27' E 012°15'1 1.5
2017-Mar-17 13:33N 44°28' E 012°15'7 7.3
2017-Mar-17 12:33N 44°30' E 012°25'1313.1
2017-Mar-17 11:33N 44°30' E 012°44'1312.7
2017-Mar-17 10:33N 44°23' E 012°58'3 3.2
2017-Mar-17 09:33N 44°20' E 013°01'5 5.1
2017-Mar-17 08:33N 44°19' E 013°08'1414.2
2017-Mar-17 07:33N 44°12' E 013°25'3014.5
2017-Mar-17 05:29N 43°54' E 013°59'1314.4
2017-Mar-17 04:33N 43°48' E 014°15'  
2017-Mar-13 20:18N 34°19' E 032°47'1013.2
2017-Mar-13 19:33N 34°17' E 032°58'  

Dump ship's entire track history